createdAt,value
2023-03-28T00:00:23.634Z,76.72
2023-03-28T00:01:23.599Z,76.33
2023-03-28T00:02:23.603Z,76.43
2023-03-28T00:03:23.604Z,76.65
2023-03-28T00:04:23.577Z,76.43
2023-03-28T00:05:23.570Z,74.77
2023-03-28T00:06:23.592Z,75.08
2023-03-28T00:07:23.525Z,74.98
2023-03-28T00:08:23.536Z,74.98
2023-03-28T00:09:23.513Z,74.98
2023-03-28T00:10:23.473Z,74.87
2023-03-28T00:11:23.484Z,75.71
2023-03-28T00:12:23.457Z,75.92
2023-03-28T00:13:23.432Z,76.33
2023-03-28T00:14:23.414Z,76.33
2023-03-28T00:15:23.403Z,76.12
2023-03-28T00:16:23.468Z,76.33
2023-03-28T00:17:23.401Z,76.43
2023-03-28T00:18:23.364Z,75.08
2023-03-28T00:19:23.366Z,73.72
2023-03-28T00:20:23.337Z,74.04
2023-03-28T00:21:23.912Z,74.15
2023-03-28T00:22:23.351Z,75.08
2023-03-28T00:23:23.309Z,75.40
2023-03-28T00:24:23.298Z,75.71
2023-03-28T00:25:23.285Z,75.81
2023-03-28T00:26:23.275Z,75.92
2023-03-28T00:27:23.284Z,75.40
2023-03-28T00:28:23.269Z,75.40
2023-03-28T00:29:23.256Z,76.33
2023-03-28T00:30:23.212Z,76.54
2023-03-28T00:31:23.278Z,76.86
2023-03-28T00:32:23.264Z,76.65
2023-03-28T00:33:23.174Z,75.50
2023-03-28T00:34:23.153Z,75.08
2023-03-28T00:35:23.195Z,75.81
2023-03-28T00:36:23.158Z,75.92
2023-03-28T00:37:23.235Z,76.23
2023-03-28T00:38:23.108Z,75.81
2023-03-28T00:39:23.090Z,75.95
2023-03-28T00:40:23.107Z,76.16
2023-03-28T00:41:23.106Z,75.63
2023-03-28T00:42:23.063Z,75.32
2023-03-28T00:43:23.041Z,75.22
2023-03-28T00:44:23.079Z,75.12
2023-03-28T00:45:23.018Z,74.80
2023-03-28T00:46:23.058Z,74.91
2023-03-28T00:47:23.024Z,75.22
2023-03-28T00:48:22.993Z,75.01
2023-03-28T00:49:22.998Z,75.22
2023-03-28T00:50:22.968Z,75.32
2023-03-28T00:51:22.946Z,75.95
2023-03-28T00:52:22.922Z,76.06
2023-03-28T00:53:22.931Z,76.79
2023-03-28T00:54:22.901Z,75.95
2023-03-28T00:55:22.892Z,76.68
2023-03-28T00:56:22.860Z,77.51
2023-03-28T00:57:22.852Z,77.41
2023-03-28T00:58:22.869Z,77.51
2023-03-28T00:59:22.823Z,77.62
2023-03-28T01:00:22.826Z,77.72
2023-03-28T01:01:22.836Z,77.83
2023-03-28T01:02:22.874Z,77.72
2023-03-28T01:03:22.919Z,77.51
2023-03-28T01:04:22.754Z,77.51
2023-03-28T01:05:22.747Z,77.10
2023-03-28T01:06:22.739Z,77.00
2023-03-28T01:07:22.743Z,76.68
2023-03-28T01:08:22.744Z,76.68
2023-03-28T01:09:22.719Z,76.57
2023-03-28T01:10:22.688Z,76.57
2023-03-28T01:11:22.659Z,76.89
2023-03-28T01:12:22.709Z,77.10
2023-03-28T01:13:22.654Z,77.31
2023-03-28T01:14:22.676Z,77.72
2023-03-28T01:15:22.626Z,78.14
2023-03-28T01:16:22.662Z,78.35
2023-03-28T01:17:22.633Z,78.25
2023-03-28T01:18:22.598Z,78.14
2023-03-28T01:19:22.559Z,78.35
2023-03-28T01:20:22.584Z,78.87
2023-03-28T01:21:22.537Z,78.87
2023-03-28T01:22:22.543Z,79.08
2023-03-28T01:23:22.517Z,78.77
2023-03-28T01:24:22.521Z,78.35
2023-03-28T01:25:22.489Z,78.87
2023-03-28T01:26:22.461Z,79.19
2023-03-28T01:27:22.475Z,79.19
2023-03-28T01:28:22.479Z,78.66
2023-03-28T01:29:22.436Z,78.25
2023-03-28T01:30:22.434Z,77.51
2023-03-28T01:31:22.459Z,77.72
2023-03-28T01:32:22.455Z,78.14
2023-03-28T01:33:22.365Z,77.94
2023-03-28T01:34:22.354Z,77.94
2023-03-28T01:35:22.527Z,77.94
2023-03-28T01:36:34.685Z,77.83
2023-03-28T01:37:22.356Z,77.83
2023-03-28T01:38:22.314Z,78.35
2023-03-28T01:39:22.323Z,78.66
2023-03-28T01:40:22.294Z,78.97
2023-03-28T01:41:22.282Z,78.56
2023-03-28T01:42:22.287Z,76.26
2023-03-28T01:43:22.265Z,76.16
2023-03-28T01:44:22.234Z,76.26
2023-03-28T01:45:22.250Z,77.41
2023-03-28T01:46:22.295Z,78.25
2023-03-28T01:47:22.253Z,78.66
2023-03-28T01:48:22.198Z,78.87
2023-03-28T01:49:22.173Z,78.56
2023-03-28T01:50:22.199Z,78.04
2023-03-28T01:51:22.161Z,76.79
2023-03-28T01:52:22.127Z,74.70
2023-03-28T01:53:22.122Z,75.53
2023-03-28T01:54:22.097Z,76.68
2023-03-28T01:55:22.124Z,76.57
2023-03-28T01:56:22.254Z,76.16
2023-03-28T01:57:22.235Z,76.47
2023-03-28T01:58:22.051Z,76.68
2023-03-28T01:59:22.040Z,76.47
2023-03-28T02:00:22.024Z,77.20
2023-03-28T02:01:22.096Z,77.55
2023-03-28T02:02:22.143Z,77.76
2023-03-28T02:03:22.083Z,78.49
2023-03-28T02:04:21.992Z,78.28
2023-03-28T02:05:21.951Z,76.61
2023-03-28T02:06:21.976Z,76.30
2023-03-28T02:07:21.934Z,76.30
2023-03-28T02:08:21.969Z,76.72
2023-03-28T02:09:24.191Z,76.92
2023-03-28T02:10:21.896Z,76.92
2023-03-28T02:11:21.883Z,76.61
2023-03-28T02:12:21.902Z,76.30
2023-03-28T02:13:21.870Z,75.88
2023-03-28T02:14:21.860Z,75.57
2023-03-28T02:15:21.829Z,75.74
2023-03-28T02:16:21.862Z,76.40
2023-03-28T02:17:21.860Z,76.82
2023-03-28T02:18:21.827Z,77.14
2023-03-28T02:19:21.781Z,77.24
2023-03-28T02:20:21.783Z,77.55
2023-03-28T02:21:21.783Z,77.76
2023-03-28T02:22:21.736Z,77.55
2023-03-28T02:23:21.786Z,77.24
2023-03-28T02:24:21.750Z,77.55
2023-03-28T02:25:21.697Z,77.66
2023-03-28T02:26:21.705Z,77.97
2023-03-28T02:27:21.674Z,78.39
2023-03-28T02:28:21.885Z,78.80
2023-03-28T02:29:21.661Z,78.28
2023-03-28T02:30:21.685Z,78.39
2023-03-28T02:31:21.675Z,78.07
2023-03-28T02:32:21.688Z,78.39
2023-03-28T02:33:21.608Z,78.28
2023-03-28T02:34:21.607Z,78.07
2023-03-28T02:35:21.599Z,78.28
2023-03-28T02:36:21.562Z,78.28
2023-03-28T02:37:21.540Z,77.34
2023-03-28T02:38:21.542Z,76.72
2023-03-28T02:39:21.522Z,77.55
2023-03-28T02:40:21.536Z,77.86
2023-03-28T02:41:21.502Z,78.18
2023-03-28T02:42:21.490Z,75.46
2023-03-28T02:43:21.461Z,74.63
2023-03-28T02:44:21.472Z,74.73
2023-03-28T02:45:21.456Z,76.30
2023-03-28T02:46:21.520Z,77.03
2023-03-28T02:47:21.427Z,75.67
2023-03-28T02:48:21.409Z,76.40
2023-03-28T02:49:21.414Z,76.92
2023-03-28T02:50:21.393Z,75.98
2023-03-28T02:51:21.368Z,76.30
2023-03-28T02:52:21.368Z,76.09
2023-03-28T02:53:21.348Z,76.40
2023-03-28T02:54:21.339Z,76.20
2023-03-28T02:55:21.321Z,76.61
2023-03-28T02:56:21.307Z,76.82
2023-03-28T02:57:21.383Z,76.72
2023-03-28T02:58:21.316Z,77.14
2023-03-28T02:59:21.266Z,77.24
2023-03-28T03:00:21.278Z,77.97
2023-03-28T03:01:21.300Z,78.18
2023-03-28T03:02:21.258Z,78.07
2023-03-28T03:03:21.276Z,77.14
2023-03-28T03:04:21.206Z,76.51
2023-03-28T03:05:21.195Z,76.72
2023-03-28T03:06:21.203Z,76.72
2023-03-28T03:07:21.194Z,77.45
2023-03-28T03:08:21.148Z,77.86
2023-03-28T03:09:21.147Z,77.86
2023-03-28T03:10:21.148Z,77.76
2023-03-28T03:11:21.114Z,77.24
2023-03-28T03:12:21.097Z,77.24
2023-03-28T03:13:21.111Z,77.24
2023-03-28T03:14:21.093Z,75.88
2023-03-28T03:15:21.087Z,75.46
2023-03-28T03:16:21.075Z,75.98
2023-03-28T03:17:21.033Z,76.30
2023-03-28T03:18:21.021Z,75.67
2023-03-28T03:19:21.040Z,74.63
2023-03-28T03:20:21.009Z,73.58
2023-03-28T03:21:20.974Z,74.21
2023-03-28T03:22:21.407Z,73.48
2023-03-28T03:23:20.990Z,73.69
2023-03-28T03:24:20.952Z,74.01
2023-03-28T03:25:20.923Z,73.69
2023-03-28T03:26:20.912Z,73.27
2023-03-28T03:27:20.895Z,72.54
2023-03-28T03:28:20.914Z,73.07
2023-03-28T03:29:20.878Z,73.27
2023-03-28T03:30:20.899Z,71.60
2023-03-28T03:31:20.869Z,70.66
2023-03-28T03:32:20.969Z,70.45
2023-03-28T03:33:20.846Z,69.82
2023-03-28T03:34:20.809Z,71.08
2023-03-28T03:35:20.831Z,72.23
2023-03-28T03:36:20.774Z,72.75
2023-03-28T03:37:20.781Z,73.48
2023-03-28T03:38:20.798Z,73.48
2023-03-28T03:39:20.744Z,74.01
2023-03-28T03:40:20.726Z,73.07
2023-03-28T03:41:20.727Z,73.38
2023-03-28T03:42:20.708Z,73.07
2023-03-28T03:43:20.744Z,72.02
2023-03-28T03:44:20.692Z,72.44
2023-03-28T03:45:20.673Z,72.85
2023-03-28T03:46:20.684Z,73.17
2023-03-28T03:47:20.643Z,73.90
2023-03-28T03:48:20.653Z,74.52
2023-03-28T03:49:20.651Z,74.42
2023-03-28T03:50:20.595Z,74.32
2023-03-28T03:51:20.608Z,74.11
2023-03-28T03:52:20.568Z,75.15
2023-03-28T03:53:20.597Z,75.78
2023-03-28T03:54:20.575Z,75.78
2023-03-28T03:55:20.529Z,76.09
2023-03-28T03:56:20.523Z,75.98
2023-03-28T03:57:20.560Z,76.30
2023-03-28T03:58:20.879Z,76.30
2023-03-28T03:59:20.536Z,76.40
2023-03-28T04:00:20.449Z,76.30
2023-03-28T04:01:20.458Z,76.51
2023-03-28T04:02:20.480Z,75.88
2023-03-28T04:03:24.200Z,76.61
2023-03-28T04:04:20.464Z,75.15
2023-03-28T04:05:20.392Z,73.58
2023-03-28T04:06:20.396Z,71.50
2023-03-28T04:07:20.387Z,72.75
2023-03-28T04:08:20.375Z,73.27
2023-03-28T04:09:20.368Z,73.79
2023-03-28T04:10:20.355Z,74.32
2023-03-28T04:11:20.320Z,75.57
2023-03-28T04:12:20.329Z,76.72
2023-03-28T04:13:20.288Z,78.39
2023-03-28T04:14:20.315Z,79.01
2023-03-28T04:15:20.349Z,79.85
2023-03-28T04:16:20.293Z,79.47
2023-03-28T04:17:20.239Z,77.59
2023-03-28T04:18:20.275Z,75.81
2023-03-28T04:19:20.229Z,75.60
2023-03-28T04:20:20.225Z,75.15
2023-03-28T04:21:20.201Z,76.61
2023-03-28T04:22:20.199Z,77.76
2023-03-28T04:23:20.167Z,78.49
2023-03-28T04:24:20.154Z,78.94
2023-03-28T04:25:20.157Z,79.57
2023-03-28T04:26:20.114Z,79.99
2023-03-28T04:27:20.108Z,79.47
2023-03-28T04:28:20.090Z,78.84
2023-03-28T04:29:20.123Z,78.94
2023-03-28T04:30:20.073Z,80.09
2023-03-28T04:31:20.129Z,80.51
2023-03-28T04:32:20.045Z,80.93
2023-03-28T04:33:20.045Z,80.41
2023-03-28T04:34:20.097Z,80.41
2023-03-28T04:35:20.010Z,81.03
2023-03-28T04:36:20.026Z,81.56
2023-03-28T04:37:19.973Z,82.07
2023-03-28T04:38:20.438Z,81.97
2023-03-28T04:39:19.958Z,81.66
2023-03-28T04:40:19.953Z,81.45
2023-03-28T04:41:20.012Z,81.24
2023-03-28T04:42:19.948Z,80.51
2023-03-28T04:43:19.916Z,78.94
2023-03-28T04:44:19.897Z,77.90
2023-03-28T04:45:19.894Z,77.69
2023-03-28T04:46:19.944Z,78.21
2023-03-28T04:47:19.873Z,79.47
2023-03-28T04:48:19.837Z,79.99
2023-03-28T04:49:19.844Z,80.20
2023-03-28T04:50:19.826Z,79.57
2023-03-28T04:51:19.802Z,78.84
2023-03-28T04:52:19.824Z,79.36
2023-03-28T04:53:19.781Z,78.11
2023-03-28T04:54:19.917Z,78.74
2023-03-28T04:55:19.749Z,79.47
2023-03-28T04:56:19.851Z,80.30
2023-03-28T04:57:19.775Z,80.72
2023-03-28T04:58:19.730Z,81.45
2023-03-28T04:59:19.726Z,81.38
2023-03-28T05:00:19.697Z,80.86
2023-03-28T05:01:19.765Z,80.96
2023-03-28T05:02:19.669Z,81.07
2023-03-28T05:03:19.768Z,81.49
2023-03-28T05:04:19.672Z,81.70
2023-03-28T05:05:19.627Z,81.59
2023-03-28T05:06:19.681Z,80.96
2023-03-28T05:07:19.591Z,81.07
2023-03-28T05:08:19.581Z,81.70
2023-03-28T05:09:19.592Z,81.18
2023-03-28T05:10:19.555Z,80.96
2023-03-28T05:11:19.540Z,80.65
2023-03-28T05:12:19.541Z,79.92
2023-03-28T05:13:19.538Z,79.29
2023-03-28T05:14:19.492Z,78.88
2023-03-28T05:15:22.457Z,79.71
2023-03-28T05:16:19.524Z,80.24
2023-03-28T05:17:19.453Z,80.41
2023-03-28T05:18:19.441Z,80.34
2023-03-28T05:19:19.463Z,80.65
2023-03-28T05:20:19.425Z,80.96
2023-03-28T05:21:19.414Z,81.28
2023-03-28T05:22:19.388Z,81.59
2023-03-28T05:23:19.375Z,80.44
2023-03-28T05:24:19.413Z,79.82
2023-03-28T05:25:19.381Z,80.30
2023-03-28T05:26:19.367Z,79.92
2023-03-28T05:27:19.347Z,80.09
2023-03-28T05:28:19.347Z,80.30
2023-03-28T05:29:19.304Z,80.72
2023-03-28T05:30:19.291Z,79.99
2023-03-28T05:31:19.311Z,79.15
2023-03-28T05:32:19.308Z,78.63
2023-03-28T05:33:19.272Z,78.94
2023-03-28T05:34:19.239Z,79.05
2023-03-28T05:35:19.218Z,79.36
2023-03-28T05:36:19.246Z,79.57
2023-03-28T05:37:19.224Z,80.09
2023-03-28T05:38:19.200Z,81.35
2023-03-28T05:39:19.193Z,81.76
2023-03-28T05:40:19.164Z,82.07
2023-03-28T05:41:19.148Z,83.01
2023-03-28T05:42:19.174Z,83.16
2023-03-28T05:43:19.125Z,83.89
2023-03-28T05:44:19.118Z,82.84
2023-03-28T05:45:19.096Z,81.49
2023-03-28T05:46:19.166Z,82.12
2023-03-28T05:47:19.138Z,83.06
2023-03-28T05:48:19.058Z,83.47
2023-03-28T05:49:19.056Z,83.78
2023-03-28T05:50:19.035Z,83.58
2023-03-28T05:51:19.020Z,83.78
2023-03-28T05:52:19.019Z,82.64
2023-03-28T05:53:18.997Z,82.12
2023-03-28T05:54:19.011Z,81.90
2023-03-28T05:55:19.006Z,82.53
2023-03-28T05:56:18.957Z,82.84
2023-03-28T05:57:19.064Z,82.53
2023-03-28T05:58:18.938Z,82.43
2023-03-28T05:59:18.921Z,82.22
2023-03-28T06:00:18.932Z,81.90
2023-03-28T06:01:18.898Z,81.49
2023-03-28T06:02:18.892Z,81.70
2023-03-28T06:03:18.933Z,82.22
2023-03-28T06:04:18.879Z,82.43
2023-03-28T06:05:18.831Z,82.32
2023-03-28T06:06:18.819Z,82.22
2023-03-28T06:07:23.136Z,81.97
2023-03-28T06:08:18.815Z,82.07
2023-03-28T06:09:18.814Z,81.90
2023-03-28T06:10:18.782Z,81.66
2023-03-28T06:11:18.774Z,81.24
2023-03-28T06:12:18.744Z,81.66
2023-03-28T06:13:18.741Z,81.24
2023-03-28T06:14:20.615Z,80.30
2023-03-28T06:15:18.717Z,81.13
2023-03-28T06:16:18.751Z,80.62
2023-03-28T06:17:18.734Z,80.82
2023-03-28T06:18:18.676Z,80.62
2023-03-28T06:19:19.022Z,80.51
2023-03-28T06:20:18.673Z,79.47
2023-03-28T06:21:18.658Z,79.26
2023-03-28T06:22:18.613Z,78.94
2023-03-28T06:23:18.628Z,78.32
2023-03-28T06:24:18.595Z,78.21
2023-03-28T06:25:18.580Z,78.53
2023-03-28T06:26:18.563Z,78.11
2023-03-28T06:27:18.546Z,78.21
2023-03-28T06:28:18.574Z,77.90
2023-03-28T06:29:18.515Z,78.00
2023-03-28T06:30:18.552Z,78.39
2023-03-28T06:31:18.556Z,78.11
2023-03-28T06:32:18.491Z,78.28
2023-03-28T06:33:18.507Z,78.39
2023-03-28T06:34:18.498Z,77.55
2023-03-28T06:35:18.494Z,77.14
2023-03-28T06:36:18.449Z,77.03
2023-03-28T06:37:18.416Z,77.14
2023-03-28T06:38:18.470Z,76.92
2023-03-28T06:39:18.399Z,76.92
2023-03-28T06:40:18.411Z,77.03
2023-03-28T06:41:18.384Z,77.24
2023-03-28T06:42:18.373Z,77.14
2023-03-28T06:43:18.386Z,76.51
2023-03-28T06:44:18.345Z,75.57
2023-03-28T06:45:18.320Z,75.26
2023-03-28T06:46:18.360Z,74.63
2023-03-28T06:47:18.330Z,73.27
2023-03-28T06:48:18.290Z,72.75
2023-03-28T06:49:18.272Z,72.44
2023-03-28T06:50:18.281Z,73.45
2023-03-28T06:51:18.231Z,73.97
2023-03-28T06:52:18.260Z,74.70
2023-03-28T06:53:18.239Z,74.60
2023-03-28T06:54:18.196Z,74.70
2023-03-28T06:55:18.182Z,73.55
2023-03-28T06:56:18.176Z,74.07
2023-03-28T06:57:18.170Z,74.38
2023-03-28T06:58:18.179Z,74.07
2023-03-28T06:59:18.162Z,72.92
2023-03-28T07:00:18.141Z,71.78
2023-03-28T07:01:18.165Z,72.61
2023-03-28T07:02:18.169Z,70.00
2023-03-28T07:03:18.180Z,71.26
2023-03-28T07:04:18.111Z,70.00
2023-03-28T07:05:18.091Z,69.90
2023-03-28T07:06:18.058Z,70.21
2023-03-28T07:07:18.049Z,70.84
2023-03-28T07:08:18.038Z,70.94
2023-03-28T07:09:18.016Z,71.15
2023-03-28T07:10:18.028Z,71.36
2023-03-28T07:11:17.972Z,70.21
2023-03-28T07:12:17.978Z,69.17
2023-03-28T07:13:17.965Z,69.17
2023-03-28T07:14:17.997Z,70.53
2023-03-28T07:15:19.400Z,68.85
2023-03-28T07:16:17.977Z,67.71
2023-03-28T07:17:17.954Z,66.98
2023-03-28T07:18:17.898Z,67.68
2023-03-28T07:19:17.884Z,67.78
2023-03-28T07:20:17.869Z,67.36
2023-03-28T07:21:17.884Z,68.30
2023-03-28T07:22:17.832Z,69.35
2023-03-28T07:23:17.828Z,70.07
2023-03-28T07:24:17.807Z,69.45
2023-03-28T07:25:17.810Z,70.07
2023-03-28T07:26:17.808Z,69.24
2023-03-28T07:27:17.768Z,65.70
2023-03-28T07:28:17.764Z,66.32
2023-03-28T07:29:17.760Z,65.70
2023-03-28T07:30:17.740Z,65.80
2023-03-28T07:31:17.807Z,67.26
2023-03-28T07:32:17.715Z,68.82
2023-03-28T07:33:22.107Z,69.87
2023-03-28T07:34:17.726Z,68.93
2023-03-28T07:35:17.698Z,68.93
2023-03-28T07:36:17.661Z,67.26
2023-03-28T07:37:17.647Z,66.82
2023-03-28T07:38:17.628Z,65.77
2023-03-28T07:39:17.617Z,65.25
2023-03-28T07:40:17.641Z,66.19
2023-03-28T07:41:17.597Z,65.98
2023-03-28T07:42:17.590Z,66.19
2023-03-28T07:43:17.560Z,67.02
2023-03-28T07:44:17.564Z,65.88
2023-03-28T07:45:17.536Z,65.67
2023-03-28T07:46:17.721Z,64.94
2023-03-28T07:47:17.505Z,64.83
2023-03-28T07:48:17.489Z,65.46
2023-03-28T07:49:17.497Z,65.46
2023-03-28T07:50:17.480Z,65.46
2023-03-28T07:51:17.517Z,65.46
2023-03-28T07:52:17.450Z,65.74
2023-03-28T07:53:17.442Z,65.14
2023-03-28T07:54:17.537Z,66.08
2023-03-28T07:55:17.402Z,65.95
2023-03-28T07:56:17.440Z,65.64
2023-03-28T07:57:17.443Z,64.80
2023-03-28T07:58:17.374Z,64.80
2023-03-28T07:59:17.363Z,63.87
2023-03-28T08:00:17.378Z,65.95
2023-03-28T08:01:17.354Z,66.57
2023-03-28T08:02:17.351Z,66.39
2023-03-28T08:03:17.402Z,65.67
2023-03-28T08:04:17.297Z,63.79
2023-03-28T08:05:17.301Z,64.73
2023-03-28T08:06:31.149Z,65.56
2023-03-28T08:07:17.255Z,66.78
2023-03-28T08:08:17.261Z,66.99
2023-03-28T08:09:17.231Z,66.47
2023-03-28T08:10:17.210Z,65.33
2023-03-28T08:11:17.196Z,63.13
2023-03-28T08:12:17.220Z,63.87
2023-03-28T08:13:17.160Z,63.03
2023-03-28T08:14:17.193Z,63.45
2023-03-28T08:15:17.155Z,62.72
2023-03-28T08:16:17.206Z,63.03
2023-03-28T08:17:17.150Z,63.87
2023-03-28T08:18:17.120Z,64.07
2023-03-28T08:19:17.107Z,64.07
2023-03-28T08:20:17.101Z,64.98
2023-03-28T08:21:17.082Z,63.10
2023-03-28T08:22:17.052Z,64.56
2023-03-28T08:23:17.049Z,62.79
2023-03-28T08:24:25.322Z,61.21
2023-03-28T08:25:17.059Z,61.10
2023-03-28T08:26:17.000Z,62.66
2023-03-28T08:27:16.976Z,63.29
2023-03-28T08:28:16.999Z,64.12
2023-03-28T08:29:16.960Z,64.32
2023-03-28T08:30:16.950Z,64.53
2023-03-28T08:31:16.961Z,64.53
2023-03-28T08:32:16.915Z,62.98
2023-03-28T08:33:16.939Z,63.81
2023-03-28T08:34:16.890Z,63.29
2023-03-28T08:35:16.884Z,64.12
2023-03-28T08:36:16.931Z,64.75
2023-03-28T08:37:16.857Z,64.67
2023-03-28T08:38:16.841Z,65.40
2023-03-28T08:39:16.865Z,65.61
2023-03-28T08:40:16.814Z,64.56
2023-03-28T08:41:16.817Z,64.87
2023-03-28T08:42:17.099Z,64.87
2023-03-28T08:43:16.790Z,64.25
2023-03-28T08:44:16.778Z,64.22
2023-03-28T08:45:16.791Z,64.32
2023-03-28T08:46:16.830Z,62.98
2023-03-28T08:47:16.721Z,62.76
2023-03-28T08:48:16.745Z,62.55
2023-03-28T08:50:44.213Z,62.98
2023-03-28T08:50:49.576Z,63.91
2023-03-28T08:51:49.552Z,63.78
2023-03-28T08:52:49.556Z,63.46
2023-03-28T08:53:49.540Z,60.73
2023-03-28T08:54:49.551Z,62.40
2023-03-28T08:55:51.108Z,62.19
2023-03-28T08:56:49.500Z,61.88
2023-03-28T08:57:49.478Z,62.19
2023-03-28T08:58:49.459Z,60.94
2023-03-28T08:59:49.659Z,62.29
2023-03-28T09:00:49.462Z,61.02
2023-03-28T09:01:49.552Z,60.29
2023-03-28T09:02:51.878Z,59.98
2023-03-28T09:03:49.501Z,59.35
2023-03-28T09:04:49.426Z,60.50
2023-03-28T09:05:49.416Z,57.69
2023-03-28T09:06:49.471Z,58.23
2023-03-28T09:07:49.359Z,57.82
2023-03-28T09:08:49.361Z,59.35
2023-03-28T09:09:49.366Z,57.90
2023-03-28T09:10:49.344Z,58.31
2023-03-28T09:11:49.308Z,59.56
2023-03-28T09:12:49.609Z,58.83
2023-03-28T09:13:49.273Z,58.83
2023-03-28T09:14:51.824Z,58.29
2023-03-28T09:15:49.248Z,56.65
2023-03-28T09:16:49.316Z,56.86
2023-03-28T09:17:49.246Z,57.45
2023-03-28T09:18:49.192Z,58.29
2023-03-28T09:19:49.336Z,57.98
2023-03-28T09:20:49.192Z,58.36
2023-03-28T09:21:49.200Z,60.31
2023-03-28T09:22:49.142Z,59.69
2023-03-28T09:23:49.150Z,60.93
2023-03-28T09:24:49.147Z,60.28
2023-03-28T09:25:49.138Z,57.17
2023-03-28T09:26:49.137Z,56.86
2023-03-28T09:27:49.099Z,56.76
2023-03-28T09:28:49.165Z,56.34
2023-03-28T09:29:49.110Z,56.96
2023-03-28T09:30:49.041Z,57.82
2023-03-28T09:31:49.117Z,58.34
2023-03-28T09:32:49.050Z,58.44
2023-03-28T09:33:49.020Z,58.75
2023-03-28T09:34:49.057Z,58.13
2023-03-28T09:35:49.082Z,59.06
2023-03-28T09:36:50.582Z,58.34
2023-03-28T09:37:48.956Z,59.48
2023-03-28T09:38:48.955Z,59.45
2023-03-28T09:39:48.961Z,59.66
2023-03-28T09:40:48.943Z,59.25
2023-03-28T09:41:48.907Z,55.82
2023-03-28T09:42:48.912Z,54.89
2023-03-28T09:43:49.067Z,54.58
2023-03-28T09:44:54.799Z,56.13
2023-03-28T09:45:48.903Z,53.02
2023-03-28T09:46:48.855Z,52.71
2023-03-28T09:47:48.995Z,55.51
2023-03-28T09:48:48.948Z,55.72
2023-03-28T09:49:50.844Z,56.62
2023-03-28T09:50:48.844Z,57.04
2023-03-28T09:51:48.795Z,56.52
2023-03-28T09:52:48.769Z,55.58
2023-03-28T09:53:48.744Z,55.48
2023-03-28T09:54:48.749Z,56.83
2023-03-28T09:55:58.059Z,55.79
2023-03-28T09:56:48.747Z,56.39
2023-03-28T09:57:48.702Z,56.49
2023-03-28T09:58:48.696Z,55.56
2023-03-28T09:59:48.661Z,55.98
2023-03-28T10:00:48.676Z,54.00
2023-03-28T10:01:48.720Z,52.87
2023-03-28T10:02:48.679Z,50.79
2023-03-28T10:03:48.619Z,52.89
2023-03-28T10:04:48.698Z,53.85
2023-03-28T10:05:48.586Z,54.81
2023-03-28T10:06:48.628Z,57.09
2023-03-28T10:07:48.575Z,56.81
2023-03-28T10:08:48.741Z,57.32
2023-03-28T10:09:48.538Z,59.61
2023-03-28T10:10:48.515Z,58.57
2023-03-28T10:11:48.554Z,58.98
2023-03-28T10:12:48.546Z,59.09
2023-03-28T10:13:48.512Z,61.07
2023-03-28T10:14:48.469Z,62.62
2023-03-28T10:15:48.475Z,62.52
2023-03-28T10:16:48.457Z,63.56
2023-03-28T10:17:49.063Z,64.18
2023-03-28T10:18:48.435Z,65.50
2023-03-28T10:19:48.438Z,65.08
2023-03-28T10:20:48.383Z,64.85
2023-03-28T10:21:48.379Z,64.06
2023-03-28T10:22:48.397Z,64.45
2023-03-28T10:23:48.353Z,62.63
2023-03-28T10:24:48.339Z,61.87
2023-03-28T10:25:48.326Z,58.74
2023-03-28T10:26:48.340Z,55.62
2023-03-28T10:27:48.296Z,56.34
2023-03-28T10:28:48.297Z,56.13
2023-03-28T10:29:48.264Z,55.41
2023-03-28T10:30:48.320Z,54.38
2023-03-28T10:31:48.251Z,54.38
2023-03-28T10:32:48.306Z,53.96
2023-03-28T10:33:48.216Z,54.19
2023-03-28T10:34:48.206Z,54.50
2023-03-28T10:35:48.263Z,54.82
2023-03-28T10:36:48.170Z,55.54
2023-03-28T10:37:48.197Z,54.22
2023-03-28T10:38:48.154Z,55.25
2023-03-28T10:39:48.136Z,55.28
2023-03-28T10:40:48.153Z,58.02
2023-03-28T10:41:48.120Z,59.16
2023-03-28T10:42:48.113Z,61.05
2023-03-28T10:43:48.241Z,61.57
2023-03-28T10:44:48.079Z,60.74
2023-03-28T10:45:48.052Z,61.16
2023-03-28T10:46:48.117Z,61.99
2023-03-28T10:47:48.113Z,62.27
2023-03-28T10:48:48.023Z,62.45
2023-03-28T10:49:48.030Z,62.01
2023-03-28T10:50:48.025Z,62.70
2023-03-28T10:51:47.992Z,62.88
2023-03-28T10:52:48.086Z,63.13
2023-03-28T10:53:47.993Z,62.27
2023-03-28T10:54:47.936Z,59.77
2023-03-28T10:55:47.924Z,60.60
2023-03-28T10:56:47.956Z,60.67
2023-03-28T10:57:47.904Z,59.23
2023-03-28T10:58:47.931Z,57.55
2023-03-28T10:59:47.897Z,55.15
2023-03-28T11:00:47.904Z,55.30
2023-03-28T11:01:47.877Z,54.15
2023-03-28T11:02:47.884Z,51.26
2023-03-28T11:03:47.872Z,52.29
2023-03-28T11:04:47.806Z,54.46
2023-03-28T11:05:58.079Z,53.53
2023-03-28T11:06:47.788Z,54.02
2023-03-28T11:07:47.772Z,53.30
2023-03-28T11:08:47.766Z,53.61
2023-03-28T11:09:47.723Z,52.66
2023-03-28T11:10:47.748Z,51.42
2023-03-28T11:11:47.716Z,52.64
2023-03-28T11:12:54.873Z,50.50
2023-03-28T11:13:47.686Z,49.82
2023-03-28T11:14:47.715Z,50.85
2023-03-28T11:15:47.704Z,51.50
2023-03-28T11:16:47.673Z,50.88
2023-03-28T11:17:47.690Z,51.93
2023-03-28T11:18:47.646Z,51.93
2023-03-28T11:19:47.616Z,49.87
2023-03-28T11:20:47.581Z,49.56
2023-03-28T11:21:47.604Z,51.34
2023-03-28T11:22:58.870Z,52.58
2023-03-28T11:23:47.551Z,51.54
2023-03-28T11:24:47.588Z,51.03
2023-03-28T11:25:47.535Z,51.36
2023-03-28T11:26:47.515Z,51.78
2023-03-28T11:27:47.517Z,53.22
2023-03-28T11:28:47.481Z,50.51
2023-03-28T11:29:47.481Z,50.10
2023-03-28T11:30:47.515Z,49.54
2023-03-28T11:31:47.487Z,47.79
2023-03-28T11:32:47.478Z,47.71
2023-03-28T11:33:47.403Z,45.23
2023-03-28T11:34:47.404Z,45.15
2023-03-28T11:35:47.422Z,46.28
2023-03-28T11:36:47.379Z,46.70
2023-03-28T11:37:47.387Z,46.51
2023-03-28T11:38:47.351Z,47.24
2023-03-28T11:39:47.341Z,46.82
2023-03-28T11:40:47.313Z,46.02
2023-03-28T11:41:47.291Z,45.32
2023-03-28T11:42:47.323Z,46.37
2023-03-28T11:43:47.269Z,47.61
2023-03-28T11:44:47.364Z,48.65
2023-03-28T11:45:52.088Z,49.08
2023-03-28T11:46:47.317Z,49.18
2023-03-28T11:47:47.271Z,48.85
2023-03-28T11:48:47.216Z,49.88
2023-03-28T11:49:47.244Z,49.57
2023-03-28T11:50:47.182Z,49.44
2023-03-28T11:51:47.188Z,50.72
2023-03-28T11:52:47.227Z,51.18
2023-03-28T11:53:47.167Z,49.37
2023-03-28T11:54:47.167Z,48.81
2023-03-28T11:55:47.121Z,47.76
2023-03-28T11:56:47.155Z,46.11
2023-03-28T11:57:47.140Z,45.58
2023-03-28T11:58:47.084Z,43.34
2023-03-28T11:59:47.076Z,44.26
2023-03-28T12:00:47.089Z,42.14
2023-03-28T12:01:47.061Z,42.79
2023-03-28T12:02:47.117Z,42.93
2023-03-28T12:03:47.079Z,41.92
2023-03-28T12:04:46.991Z,43.50
2023-03-28T12:05:46.995Z,45.48
2023-03-28T12:06:59.529Z,44.06
2023-03-28T12:07:46.972Z,43.96
2023-03-28T12:08:46.937Z,46.64
2023-03-28T12:09:46.922Z,47.56
2023-03-28T12:10:46.941Z,48.29
2023-03-28T12:11:46.892Z,48.47
2023-03-28T12:12:46.902Z,47.96
2023-03-28T12:13:50.997Z,48.99
2023-03-28T12:14:46.865Z,48.68
2023-03-28T12:15:46.878Z,49.09
2023-03-28T12:16:46.902Z,50.33
2023-03-28T12:17:46.823Z,47.24
2023-03-28T12:18:46.829Z,49.61
2023-03-28T12:19:46.811Z,49.61
2023-03-28T12:20:46.784Z,50.23
2023-03-28T12:21:46.749Z,50.02
2023-03-28T12:22:46.759Z,48.78
2023-03-28T12:23:46.736Z,48.58
2023-03-28T12:24:46.733Z,50.12
2023-03-28T12:25:46.736Z,49.61
2023-03-28T12:26:46.698Z,49.61
2023-03-28T12:27:46.670Z,49.91
2023-03-28T12:28:46.671Z,49.40
2023-03-28T12:29:46.659Z,49.09
2023-03-28T12:30:46.690Z,48.78
2023-03-28T12:31:46.637Z,48.37
2023-03-28T12:32:46.861Z,49.81
2023-03-28T12:33:46.599Z,50.43
2023-03-28T12:34:46.584Z,49.69
2023-03-28T12:35:46.640Z,49.69
2023-03-28T12:36:46.574Z,49.48
2023-03-28T12:37:46.525Z,49.98
2023-03-28T12:38:46.519Z,51.00
2023-03-28T12:39:46.512Z,51.09
2023-03-28T12:40:46.522Z,50.46
2023-03-28T12:41:46.506Z,49.02
2023-03-28T12:42:46.496Z,49.02
2023-03-28T12:43:46.452Z,47.89
2023-03-28T12:44:46.482Z,47.17
2023-03-28T12:45:46.494Z,47.89
2023-03-28T12:46:46.636Z,48.18
2023-03-28T12:47:46.475Z,48.38
2023-03-28T12:48:46.399Z,47.05
2023-03-28T12:49:46.384Z,46.73
2023-03-28T12:50:46.373Z,44.37
2023-03-28T12:51:46.341Z,44.80
2023-03-28T12:52:46.389Z,46.84